sensor_id;sensor_type;location;lat;lon;timestamp;P1;durP1;ratioP1;P2;durP2;ratioP2
62102;SDS011;48077;48.104;11.702;2023-02-28T00:01:14;76.55;;;70.43;;
62102;SDS011;48077;48.104;11.702;2023-02-28T00:03:38;71.72;;;66.35;;
62102;SDS011;48077;48.104;11.702;2023-02-28T00:06:05;73.20;;;67.70;;
62102;SDS011;48077;48.104;11.702;2023-02-28T00:08:29;75.55;;;69.80;;
62102;SDS011;48077;48.104;11.702;2023-02-28T00:10:53;74.13;;;68.38;;
62102;SDS011;48077;48.104;11.702;2023-02-28T00:13:16;74.18;;;68.20;;
62102;SDS011;48077;48.104;11.702;2023-02-28T00:15:39;75.72;;;69.70;;
62102;SDS011;48077;48.104;11.702;2023-02-28T00:18:03;73.85;;;68.18;;
62102;SDS011;48077;48.104;11.702;2023-02-28T00:20:26;74.78;;;68.90;;
62102;SDS011;48077;48.104;11.702;2023-02-28T00:22:53;75.05;;;69.20;;
62102;SDS011;48077;48.104;11.702;2023-02-28T00:25:17;74.95;;;69.20;;
62102;SDS011;48077;48.104;11.702;2023-02-28T00:27:44;74.57;;;68.82;;
62102;SDS011;48077;48.104;11.702;2023-02-28T00:30:09;76.57;;;70.53;;
62102;SDS011;48077;48.104;11.702;2023-02-28T00:32:34;74.95;;;69.22;;
62102;SDS011;48077;48.104;11.702;2023-02-28T00:34:58;74.20;;;68.65;;
62102;SDS011;48077;48.104;11.702;2023-02-28T00:37:21;76.03;;;69.88;;
62102;SDS011;48077;48.104;11.702;2023-02-28T00:39:45;74.25;;;68.65;;
62102;SDS011;48077;48.104;11.702;2023-02-28T00:42:08;79.88;;;73.55;;
62102;SDS011;48077;48.104;11.702;2023-02-28T00:44:32;75.68;;;69.72;;
62102;SDS011;48077;48.104;11.702;2023-02-28T00:46:55;76.90;;;70.53;;
62102;SDS011;48077;48.104;11.702;2023-02-28T00:49:19;76.30;;;69.97;;
62102;SDS011;48077;48.104;11.702;2023-02-28T00:51:43;78.07;;;71.63;;
62102;SDS011;48077;48.104;11.702;2023-02-28T00:54:06;77.43;;;71.07;;
62102;SDS011;48077;48.104;11.702;2023-02-28T00:56:30;75.63;;;69.88;;
62102;SDS011;48077;48.104;11.702;2023-02-28T00:58:53;79.10;;;72.60;;
62102;SDS011;48077;48.104;11.702;2023-02-28T01:01:17;77.13;;;71.22;;
62102;SDS011;48077;48.104;11.702;2023-02-28T01:03:40;77.47;;;71.43;;
62102;SDS011;48077;48.104;11.702;2023-02-28T01:06:03;78.55;;;72.30;;
62102;SDS011;48077;48.104;11.702;2023-02-28T01:08:27;77.22;;;71.15;;
62102;SDS011;48077;48.104;11.702;2023-02-28T01:10:51;75.55;;;69.57;;
62102;SDS011;48077;48.104;11.702;2023-02-28T01:13:15;78.40;;;72.28;;
62102;SDS011;48077;48.104;11.702;2023-02-28T01:15:40;80.13;;;73.38;;
62102;SDS011;48077;48.104;11.702;2023-02-28T01:18:06;78.35;;;72.30;;
62102;SDS011;48077;48.104;11.702;2023-02-28T01:20:29;79.07;;;72.35;;
62102;SDS011;48077;48.104;11.702;2023-02-28T01:22:53;78.03;;;71.97;;
62102;SDS011;48077;48.104;11.702;2023-02-28T01:25:16;78.18;;;72.15;;
62102;SDS011;48077;48.104;11.702;2023-02-28T01:27:39;81.75;;;75.00;;
62102;SDS011;48077;48.104;11.702;2023-02-28T01:30:03;78.70;;;72.57;;
62102;SDS011;48077;48.104;11.702;2023-02-28T01:32:27;78.38;;;72.47;;
62102;SDS011;48077;48.104;11.702;2023-02-28T01:34:50;80.25;;;73.80;;
62102;SDS011;48077;48.104;11.702;2023-02-28T01:37:13;80.32;;;74.15;;
62102;SDS011;48077;48.104;11.702;2023-02-28T01:39:37;78.00;;;71.90;;
62102;SDS011;48077;48.104;11.702;2023-02-28T01:42:00;80.82;;;74.63;;
62102;SDS011;48077;48.104;11.702;2023-02-28T01:47:18;81.68;;;75.43;;
62102;SDS011;48077;48.104;11.702;2023-02-28T01:49:41;83.13;;;76.40;;
62102;SDS011;48077;48.104;11.702;2023-02-28T01:52:05;80.13;;;74.10;;
62102;SDS011;48077;48.104;11.702;2023-02-28T01:54:33;83.78;;;77.03;;
62102;SDS011;48077;48.104;11.702;2023-02-28T01:57:08;83.20;;;76.50;;
62102;SDS011;48077;48.104;11.702;2023-02-28T01:59:39;82.43;;;76.10;;
62102;SDS011;48077;48.104;11.702;2023-02-28T02:02:09;84.82;;;77.97;;
62102;SDS011;48077;48.104;11.702;2023-02-28T02:04:34;87.18;;;80.03;;
62102;SDS011;48077;48.104;11.702;2023-02-28T02:07:02;82.05;;;75.45;;
62102;SDS011;48077;48.104;11.702;2023-02-28T02:09:28;81.50;;;74.85;;
62102;SDS011;48077;48.104;11.702;2023-02-28T02:11:51;82.50;;;76.03;;
62102;SDS011;48077;48.104;11.702;2023-02-28T02:14:28;83.13;;;76.78;;
62102;SDS011;48077;48.104;11.702;2023-02-28T02:17:16;84.72;;;78.10;;
62102;SDS011;48077;48.104;11.702;2023-02-28T02:22:43;84.28;;;77.55;;
62102;SDS011;48077;48.104;11.702;2023-02-28T02:25:45;88.65;;;81.68;;
62102;SDS011;48077;48.104;11.702;2023-02-28T02:36:25;87.60;;;80.85;;
62102;SDS011;48077;48.104;11.702;2023-02-28T02:38:58;87.10;;;79.82;;
62102;SDS011;48077;48.104;11.702;2023-02-28T02:41:36;85.63;;;79.00;;
62102;SDS011;48077;48.104;11.702;2023-02-28T02:44:48;86.40;;;79.53;;
62102;SDS011;48077;48.104;11.702;2023-02-28T02:47:06;86.38;;;79.78;;
62102;SDS011;48077;48.104;11.702;2023-02-28T02:49:33;87.15;;;80.15;;
62102;SDS011;48077;48.104;11.702;2023-02-28T02:52:03;87.90;;;80.68;;
62102;SDS011;48077;48.104;11.702;2023-02-28T02:54:30;86.43;;;79.82;;
62102;SDS011;48077;48.104;11.702;2023-02-28T02:56:58;87.75;;;80.60;;
62102;SDS011;48077;48.104;11.702;2023-02-28T02:59:26;86.05;;;79.45;;
62102;SDS011;48077;48.104;11.702;2023-02-28T03:01:52;85.32;;;78.72;;
62102;SDS011;48077;48.104;11.702;2023-02-28T03:04:20;86.00;;;79.07;;
62102;SDS011;48077;48.104;11.702;2023-02-28T03:06:45;84.97;;;78.65;;
62102;SDS011;48077;48.104;11.702;2023-02-28T03:09:08;90.60;;;82.55;;
62102;SDS011;48077;48.104;11.702;2023-02-28T03:11:35;86.45;;;79.63;;
62102;SDS011;48077;48.104;11.702;2023-02-28T03:16:46;85.30;;;78.68;;
62102;SDS011;48077;48.104;11.702;2023-02-28T03:19:29;85.38;;;78.78;;
62102;SDS011;48077;48.104;11.702;2023-02-28T03:24:45;87.93;;;80.70;;
62102;SDS011;48077;48.104;11.702;2023-02-28T03:27:23;86.53;;;79.63;;
62102;SDS011;48077;48.104;11.702;2023-02-28T03:30:15;86.82;;;80.00;;
62102;SDS011;48077;48.104;11.702;2023-02-28T03:35:14;88.93;;;81.72;;
62102;SDS011;48077;48.104;11.702;2023-02-28T03:37:44;87.80;;;80.95;;
62102;SDS011;48077;48.104;11.702;2023-02-28T03:40:13;88.72;;;81.57;;
62102;SDS011;48077;48.104;11.702;2023-02-28T03:42:41;87.65;;;80.93;;
62102;SDS011;48077;48.104;11.702;2023-02-28T03:45:10;86.78;;;79.85;;
62102;SDS011;48077;48.104;11.702;2023-02-28T03:47:43;86.75;;;79.80;;
62102;SDS011;48077;48.104;11.702;2023-02-28T03:50:54;86.03;;;79.15;;
62102;SDS011;48077;48.104;11.702;2023-02-28T03:53:07;89.82;;;82.82;;
62102;SDS011;48077;48.104;11.702;2023-02-28T03:55:49;90.05;;;82.85;;
62102;SDS011;48077;48.104;11.702;2023-02-28T04:00:57;90.30;;;82.85;;
62102;SDS011;48077;48.104;11.702;2023-02-28T04:03:30;89.32;;;82.15;;
62102;SDS011;48077;48.104;11.702;2023-02-28T04:05:55;88.13;;;81.15;;
62102;SDS011;48077;48.104;11.702;2023-02-28T04:08:20;89.22;;;81.95;;
62102;SDS011;48077;48.104;11.702;2023-02-28T04:10:45;87.63;;;81.03;;
62102;SDS011;48077;48.104;11.702;2023-02-28T04:13:15;88.07;;;80.93;;
62102;SDS011;48077;48.104;11.702;2023-02-28T04:15:39;87.57;;;80.63;;
62102;SDS011;48077;48.104;11.702;2023-02-28T04:18:02;90.97;;;83.47;;
62102;SDS011;48077;48.104;11.702;2023-02-28T04:20:26;90.03;;;82.93;;
62102;SDS011;48077;48.104;11.702;2023-02-28T04:22:49;90.20;;;83.07;;
62102;SDS011;48077;48.104;11.702;2023-02-28T04:25:12;90.63;;;83.05;;
62102;SDS011;48077;48.104;11.702;2023-02-28T04:27:36;88.63;;;81.80;;
62102;SDS011;48077;48.104;11.702;2023-02-28T04:29:59;90.40;;;83.18;;
62102;SDS011;48077;48.104;11.702;2023-02-28T04:32:22;89.78;;;82.65;;
62102;SDS011;48077;48.104;11.702;2023-02-28T04:34:46;91.22;;;83.72;;
62102;SDS011;48077;48.104;11.702;2023-02-28T04:37:09;91.80;;;84.25;;
62102;SDS011;48077;48.104;11.702;2023-02-28T04:39:34;89.78;;;82.72;;
62102;SDS011;48077;48.104;11.702;2023-02-28T04:41:59;91.80;;;84.38;;
62102;SDS011;48077;48.104;11.702;2023-02-28T04:44:22;92.15;;;84.88;;
62102;SDS011;48077;48.104;11.702;2023-02-28T04:46:47;91.75;;;84.40;;
62102;SDS011;48077;48.104;11.702;2023-02-28T04:49:11;92.47;;;85.10;;
62102;SDS011;48077;48.104;11.702;2023-02-28T04:51:34;92.47;;;85.15;;
62102;SDS011;48077;48.104;11.702;2023-02-28T04:53:58;92.82;;;85.28;;
62102;SDS011;48077;48.104;11.702;2023-02-28T04:56:21;92.78;;;85.50;;
62102;SDS011;48077;48.104;11.702;2023-02-28T04:58:45;92.53;;;84.90;;
62102;SDS011;48077;48.104;11.702;2023-02-28T05:01:17;94.97;;;87.10;;
62102;SDS011;48077;48.104;11.702;2023-02-28T05:03:43;93.15;;;85.85;;
62102;SDS011;48077;48.104;11.702;2023-02-28T05:06:07;93.53;;;85.88;;
62102;SDS011;48077;48.104;11.702;2023-02-28T05:08:32;93.95;;;86.18;;
62102;SDS011;48077;48.104;11.702;2023-02-28T05:10:55;92.25;;;84.72;;
62102;SDS011;48077;48.104;11.702;2023-02-28T05:13:18;92.35;;;84.93;;
62102;SDS011;48077;48.104;11.702;2023-02-28T05:15:42;93.32;;;85.57;;
62102;SDS011;48077;48.104;11.702;2023-02-28T05:18:05;93.75;;;85.95;;
62102;SDS011;48077;48.104;11.702;2023-02-28T05:20:28;95.40;;;87.50;;
62102;SDS011;48077;48.104;11.702;2023-02-28T05:22:54;92.07;;;84.72;;
62102;SDS011;48077;48.104;11.702;2023-02-28T05:25:20;92.30;;;84.40;;
62102;SDS011;48077;48.104;11.702;2023-02-28T05:30:10;100.60;;;92.40;;
62102;SDS011;48077;48.104;11.702;2023-02-28T05:32:34;98.60;;;90.43;;
62102;SDS011;48077;48.104;11.702;2023-02-28T05:35:00;96.80;;;88.82;;
62102;SDS011;48077;48.104;11.702;2023-02-28T05:37:24;95.53;;;87.85;;
62102;SDS011;48077;48.104;11.702;2023-02-28T05:39:47;95.43;;;87.65;;
62102;SDS011;48077;48.104;11.702;2023-02-28T05:42:10;92.80;;;85.35;;
62102;SDS011;48077;48.104;11.702;2023-02-28T05:44:34;95.88;;;87.72;;
62102;SDS011;48077;48.104;11.702;2023-02-28T05:46:58;94.18;;;86.20;;
62102;SDS011;48077;48.104;11.702;2023-02-28T05:49:22;93.95;;;85.88;;
62102;SDS011;48077;48.104;11.702;2023-02-28T05:51:45;98.95;;;90.28;;
62102;SDS011;48077;48.104;11.702;2023-02-28T05:54:08;97.85;;;89.53;;
62102;SDS011;48077;48.104;11.702;2023-02-28T05:56:32;97.07;;;89.10;;
62102;SDS011;48077;48.104;11.702;2023-02-28T05:58:57;95.90;;;87.60;;
62102;SDS011;48077;48.104;11.702;2023-02-28T06:01:22;96.22;;;87.93;;
62102;SDS011;48077;48.104;11.702;2023-02-28T06:04:10;97.13;;;88.85;;
62102;SDS011;48077;48.104;11.702;2023-02-28T06:06:34;94.88;;;86.90;;
62102;SDS011;48077;48.104;11.702;2023-02-28T06:08:58;96.40;;;88.28;;
62102;SDS011;48077;48.104;11.702;2023-02-28T06:11:22;94.78;;;86.93;;
62102;SDS011;48077;48.104;11.702;2023-02-28T06:13:49;96.47;;;88.28;;
62102;SDS011;48077;48.104;11.702;2023-02-28T06:16:17;94.60;;;86.43;;
62102;SDS011;48077;48.104;11.702;2023-02-28T06:18:40;94.05;;;85.82;;
62102;SDS011;48077;48.104;11.702;2023-02-28T06:21:04;95.68;;;87.45;;
62102;SDS011;48077;48.104;11.702;2023-02-28T06:23:27;95.05;;;86.95;;
62102;SDS011;48077;48.104;11.702;2023-02-28T06:25:51;95.53;;;87.45;;
62102;SDS011;48077;48.104;11.702;2023-02-28T06:28:15;96.30;;;87.95;;
62102;SDS011;48077;48.104;11.702;2023-02-28T06:30:39;97.15;;;88.72;;
62102;SDS011;48077;48.104;11.702;2023-02-28T06:33:02;96.90;;;88.78;;
62102;SDS011;48077;48.104;11.702;2023-02-28T06:35:25;95.68;;;87.63;;
62102;SDS011;48077;48.104;11.702;2023-02-28T06:37:49;96.93;;;88.68;;
62102;SDS011;48077;48.104;11.702;2023-02-28T06:40:13;95.72;;;87.75;;
62102;SDS011;48077;48.104;11.702;2023-02-28T06:42:37;95.53;;;87.40;;
62102;SDS011;48077;48.104;11.702;2023-02-28T06:45:00;96.60;;;88.45;;
62102;SDS011;48077;48.104;11.702;2023-02-28T06:47:26;96.35;;;88.35;;
62102;SDS011;48077;48.104;11.702;2023-02-28T06:49:49;94.03;;;86.22;;
62102;SDS011;48077;48.104;11.702;2023-02-28T06:52:13;94.53;;;86.47;;
62102;SDS011;48077;48.104;11.702;2023-02-28T06:54:37;94.72;;;86.78;;
62102;SDS011;48077;48.104;11.702;2023-02-28T06:57:01;95.10;;;86.90;;
62102;SDS011;48077;48.104;11.702;2023-02-28T06:59:24;94.43;;;86.55;;
62102;SDS011;48077;48.104;11.702;2023-02-28T07:01:47;93.43;;;85.47;;
62102;SDS011;48077;48.104;11.702;2023-02-28T07:04:11;95.22;;;87.05;;
62102;SDS011;48077;48.104;11.702;2023-02-28T07:06:36;95.80;;;87.70;;
62102;SDS011;48077;48.104;11.702;2023-02-28T07:08:59;95.55;;;87.47;;
62102;SDS011;48077;48.104;11.702;2023-02-28T07:11:24;95.57;;;87.57;;
62102;SDS011;48077;48.104;11.702;2023-02-28T07:13:49;95.75;;;87.60;;
62102;SDS011;48077;48.104;11.702;2023-02-28T07:16:13;97.35;;;89.00;;
62102;SDS011;48077;48.104;11.702;2023-02-28T07:18:37;94.97;;;86.72;;
62102;SDS011;48077;48.104;11.702;2023-02-28T07:21:02;94.45;;;86.43;;
62102;SDS011;48077;48.104;11.702;2023-02-28T07:23:29;96.18;;;88.15;;
62102;SDS011;48077;48.104;11.702;2023-02-28T07:25:54;94.25;;;86.05;;
62102;SDS011;48077;48.104;11.702;2023-02-28T07:28:19;93.65;;;85.60;;
62102;SDS011;48077;48.104;11.702;2023-02-28T07:30:43;94.75;;;86.82;;
62102;SDS011;48077;48.104;11.702;2023-02-28T07:33:06;96.18;;;87.93;;
62102;SDS011;48077;48.104;11.702;2023-02-28T07:35:30;94.55;;;85.70;;
62102;SDS011;48077;48.104;11.702;2023-02-28T07:37:53;92.68;;;84.90;;
62102;SDS011;48077;48.104;11.702;2023-02-28T07:40:16;94.85;;;86.65;;
62102;SDS011;48077;48.104;11.702;2023-02-28T07:42:41;95.30;;;87.10;;
62102;SDS011;48077;48.104;11.702;2023-02-28T07:45:05;95.50;;;87.13;;
62102;SDS011;48077;48.104;11.702;2023-02-28T07:47:29;93.25;;;85.18;;
62102;SDS011;48077;48.104;11.702;2023-02-28T07:49:53;92.13;;;84.20;;
62102;SDS011;48077;48.104;11.702;2023-02-28T07:52:16;93.65;;;85.72;;
62102;SDS011;48077;48.104;11.702;2023-02-28T07:54:39;92.38;;;84.43;;
62102;SDS011;48077;48.104;11.702;2023-02-28T07:57:03;93.57;;;85.57;;
62102;SDS011;48077;48.104;11.702;2023-02-28T07:59:26;92.28;;;84.47;;
62102;SDS011;48077;48.104;11.702;2023-02-28T08:01:50;93.32;;;85.57;;
62102;SDS011;48077;48.104;11.702;2023-02-28T08:04:13;92.40;;;84.30;;
62102;SDS011;48077;48.104;11.702;2023-02-28T08:06:37;93.30;;;85.35;;
62102;SDS011;48077;48.104;11.702;2023-02-28T08:09:00;97.88;;;89.18;;
62102;SDS011;48077;48.104;11.702;2023-02-28T08:11:24;93.38;;;85.55;;
62102;SDS011;48077;48.104;11.702;2023-02-28T08:13:47;93.30;;;85.13;;
62102;SDS011;48077;48.104;11.702;2023-02-28T08:16:11;96.45;;;87.95;;
62102;SDS011;48077;48.104;11.702;2023-02-28T08:18:40;93.63;;;85.53;;
62102;SDS011;48077;48.104;11.702;2023-02-28T08:21:07;92.18;;;84.38;;
62102;SDS011;48077;48.104;11.702;2023-02-28T08:23:31;95.10;;;86.88;;
62102;SDS011;48077;48.104;11.702;2023-02-28T08:25:56;92.60;;;84.75;;
62102;SDS011;48077;48.104;11.702;2023-02-28T08:28:22;93.30;;;85.25;;
62102;SDS011;48077;48.104;11.702;2023-02-28T08:30:45;94.22;;;86.15;;
62102;SDS011;48077;48.104;11.702;2023-02-28T08:33:09;91.53;;;83.35;;
62102;SDS011;48077;48.104;11.702;2023-02-28T08:35:32;92.65;;;84.88;;
62102;SDS011;48077;48.104;11.702;2023-02-28T08:37:58;94.55;;;86.18;;
62102;SDS011;48077;48.104;11.702;2023-02-28T08:40:22;91.43;;;83.80;;
62102;SDS011;48077;48.104;11.702;2023-02-28T08:42:45;97.22;;;88.82;;
62102;SDS011;48077;48.104;11.702;2023-02-28T08:45:09;93.07;;;85.03;;
62102;SDS011;48077;48.104;11.702;2023-02-28T08:47:32;94.35;;;86.03;;
62102;SDS011;48077;48.104;11.702;2023-02-28T08:49:56;91.97;;;84.28;;
62102;SDS011;48077;48.104;11.702;2023-02-28T08:52:19;91.80;;;84.05;;
62102;SDS011;48077;48.104;11.702;2023-02-28T08:54:43;92.85;;;84.68;;
62102;SDS011;48077;48.104;11.702;2023-02-28T08:57:06;92.03;;;84.10;;
62102;SDS011;48077;48.104;11.702;2023-02-28T08:59:29;92.05;;;83.93;;
62102;SDS011;48077;48.104;11.702;2023-02-28T09:01:53;93.25;;;85.22;;
62102;SDS011;48077;48.104;11.702;2023-02-28T09:04:16;94.03;;;85.57;;
62102;SDS011;48077;48.104;11.702;2023-02-28T09:06:40;93.28;;;85.07;;
62102;SDS011;48077;48.104;11.702;2023-02-28T09:09:03;93.60;;;84.97;;
62102;SDS011;48077;48.104;11.702;2023-02-28T09:11:29;93.63;;;85.35;;
62102;SDS011;48077;48.104;11.702;2023-02-28T09:13:52;90.68;;;82.97;;
62102;SDS011;48077;48.104;11.702;2023-02-28T09:16:16;94.43;;;85.97;;
62102;SDS011;48077;48.104;11.702;2023-02-28T09:18:40;96.00;;;87.15;;
62102;SDS011;48077;48.104;11.702;2023-02-28T09:21:04;94.88;;;86.28;;
62102;SDS011;48077;48.104;11.702;2023-02-28T09:23:28;97.43;;;88.80;;
62102;SDS011;48077;48.104;11.702;2023-02-28T09:25:53;92.20;;;84.22;;
62102;SDS011;48077;48.104;11.702;2023-02-28T09:28:17;92.25;;;84.05;;
62102;SDS011;48077;48.104;11.702;2023-02-28T09:30:41;93.32;;;85.28;;
62102;SDS011;48077;48.104;11.702;2023-02-28T09:33:04;93.28;;;85.22;;
62102;SDS011;48077;48.104;11.702;2023-02-28T09:35:28;95.97;;;87.38;;
62102;SDS011;48077;48.104;11.702;2023-02-28T09:37:51;92.80;;;85.00;;
62102;SDS011;48077;48.104;11.702;2023-02-28T09:40:15;92.20;;;84.18;;
62102;SDS011;48077;48.104;11.702;2023-02-28T09:42:40;92.18;;;83.88;;
62102;SDS011;48077;48.104;11.702;2023-02-28T09:45:08;92.75;;;84.50;;
62102;SDS011;48077;48.104;11.702;2023-02-28T09:47:43;96.15;;;87.93;;
62102;SDS011;48077;48.104;11.702;2023-02-28T09:50:31;95.65;;;87.10;;
62102;SDS011;48077;48.104;11.702;2023-02-28T09:52:55;96.97;;;88.45;;
62102;SDS011;48077;48.104;11.702;2023-02-28T09:55:29;91.95;;;83.95;;
62102;SDS011;48077;48.104;11.702;2023-02-28T09:57:56;96.47;;;87.90;;
62102;SDS011;48077;48.104;11.702;2023-02-28T10:00:24;93.15;;;84.95;;
62102;SDS011;48077;48.104;11.702;2023-02-28T10:05:54;95.88;;;87.22;;
62102;SDS011;48077;48.104;11.702;2023-02-28T10:08:27;94.43;;;86.35;;
62102;SDS011;48077;48.104;11.702;2023-02-28T10:10:56;96.70;;;87.65;;
62102;SDS011;48077;48.104;11.702;2023-02-28T10:15:58;93.22;;;85.20;;
62102;SDS011;48077;48.104;11.702;2023-02-28T10:18:29;94.65;;;86.25;;
62102;SDS011;48077;48.104;11.702;2023-02-28T10:20:56;93.60;;;85.53;;
62102;SDS011;48077;48.104;11.702;2023-02-28T10:23:21;91.75;;;83.53;;
62102;SDS011;48077;48.104;11.702;2023-02-28T10:25:55;92.07;;;83.97;;
62102;SDS011;48077;48.104;11.702;2023-02-28T10:28:24;92.95;;;84.63;;
62102;SDS011;48077;48.104;11.702;2023-02-28T10:30:49;90.32;;;82.55;;
62102;SDS011;48077;48.104;11.702;2023-02-28T10:35:45;88.50;;;80.85;;
62102;SDS011;48077;48.104;11.702;2023-02-28T10:38:16;88.78;;;80.90;;
62102;SDS011;48077;48.104;11.702;2023-02-28T10:40:42;83.97;;;76.78;;
62102;SDS011;48077;48.104;11.702;2023-02-28T10:43:16;85.63;;;78.03;;
62102;SDS011;48077;48.104;11.702;2023-02-28T10:45:52;86.80;;;79.15;;
62102;SDS011;48077;48.104;11.702;2023-02-28T10:53:17;82.10;;;74.60;;
62102;SDS011;48077;48.104;11.702;2023-02-28T10:55:55;80.03;;;72.78;;
62102;SDS011;48077;48.104;11.702;2023-02-28T11:01:15;79.75;;;72.80;;
62102;SDS011;48077;48.104;11.702;2023-02-28T11:03:54;80.15;;;72.72;;
62102;SDS011;48077;48.104;11.702;2023-02-28T11:06:19;79.13;;;71.68;;
62102;SDS011;48077;48.104;11.702;2023-02-28T11:08:46;77.05;;;70.10;;
62102;SDS011;48077;48.104;11.702;2023-02-28T11:11:12;77.25;;;70.32;;
62102;SDS011;48077;48.104;11.702;2023-02-28T11:13:36;75.13;;;68.60;;
62102;SDS011;48077;48.104;11.702;2023-02-28T11:16:03;76.65;;;70.30;;
62102;SDS011;48077;48.104;11.702;2023-02-28T11:21:01;73.65;;;67.38;;
62102;SDS011;48077;48.104;11.702;2023-02-28T11:23:26;74.22;;;67.82;;
62102;SDS011;48077;48.104;11.702;2023-02-28T11:25:52;74.07;;;67.40;;
62102;SDS011;48077;48.104;11.702;2023-02-28T11:31:00;75.80;;;68.88;;
62102;SDS011;48077;48.104;11.702;2023-02-28T11:33:27;73.90;;;67.18;;
62102;SDS011;48077;48.104;11.702;2023-02-28T11:35:57;73.57;;;66.93;;
62102;SDS011;48077;48.104;11.702;2023-02-28T11:38:23;74.78;;;68.22;;
62102;SDS011;48077;48.104;11.702;2023-02-28T11:49:03;62.60;;;56.90;;
62102;SDS011;48077;48.104;11.702;2023-02-28T11:51:45;63.95;;;58.45;;
62102;SDS011;48077;48.104;11.702;2023-02-28T12:00:02;60.47;;;55.30;;
62102;SDS011;48077;48.104;11.702;2023-02-28T12:05:46;69.70;;;63.35;;
62102;SDS011;48077;48.104;11.702;2023-02-28T12:08:38;68.53;;;62.15;;
62102;SDS011;48077;48.104;11.702;2023-02-28T12:27:55;65.65;;;59.90;;
62102;SDS011;48077;48.104;11.702;2023-02-28T12:30:23;59.90;;;54.60;;
62102;SDS011;48077;48.104;11.702;2023-02-28T12:32:52;60.75;;;55.63;;
62102;SDS011;48077;48.104;11.702;2023-02-28T12:35:25;61.63;;;55.88;;
62102;SDS011;48077;48.104;11.702;2023-02-28T12:38:02;59.65;;;54.60;;
62102;SDS011;48077;48.104;11.702;2023-02-28T12:40:38;65.13;;;59.42;;
62102;SDS011;48077;48.104;11.702;2023-02-28T12:43:07;66.28;;;60.70;;
62102;SDS011;48077;48.104;11.702;2023-02-28T12:48:13;66.18;;;60.63;;
62102;SDS011;48077;48.104;11.702;2023-02-28T12:50:42;64.07;;;58.53;;
62102;SDS011;48077;48.104;11.702;2023-02-28T12:53:08;62.33;;;56.83;;
62102;SDS011;48077;48.104;11.702;2023-02-28T12:58:32;64.93;;;59.47;;
62102;SDS011;48077;48.104;11.702;2023-02-28T13:04:15;62.80;;;57.65;;
62102;SDS011;48077;48.104;11.702;2023-02-28T13:09:33;70.97;;;64.40;;
62102;SDS011;48077;48.104;11.702;2023-02-28T13:11:59;66.50;;;60.92;;
62102;SDS011;48077;48.104;11.702;2023-02-28T13:14:30;70.38;;;63.85;;
62102;SDS011;48077;48.104;11.702;2023-02-28T13:19:26;68.18;;;62.20;;
62102;SDS011;48077;48.104;11.702;2023-02-28T13:21:52;67.55;;;61.72;;
62102;SDS011;48077;48.104;11.702;2023-02-28T13:29:38;67.90;;;62.17;;
62102;SDS011;48077;48.104;11.702;2023-02-28T13:39:50;75.70;;;69.00;;
62102;SDS011;48077;48.104;11.702;2023-02-28T13:48:14;68.60;;;62.42;;
62102;SDS011;48077;48.104;11.702;2023-02-28T13:50:37;68.78;;;62.75;;
62102;SDS011;48077;48.104;11.702;2023-02-28T13:58:25;65.00;;;59.03;;
62102;SDS011;48077;48.104;11.702;2023-02-28T14:06:34;63.17;;;57.83;;
62102;SDS011;48077;48.104;11.702;2023-02-28T14:09:05;63.75;;;58.00;;
62102;SDS011;48077;48.104;11.702;2023-02-28T14:11:39;61.83;;;56.55;;
62102;SDS011;48077;48.104;11.702;2023-02-28T14:14:04;58.60;;;53.15;;
62102;SDS011;48077;48.104;11.702;2023-02-28T14:16:43;57.65;;;52.55;;
62102;SDS011;48077;48.104;11.702;2023-02-28T14:27:03;61.95;;;56.63;;
62102;SDS011;48077;48.104;11.702;2023-02-28T14:32:25;64.50;;;58.85;;
62102;SDS011;48077;48.104;11.702;2023-02-28T14:37:46;63.78;;;58.25;;
62102;SDS011;48077;48.104;11.702;2023-02-28T14:40:12;63.17;;;57.58;;
62102;SDS011;48077;48.104;11.702;2023-02-28T14:42:54;62.70;;;57.35;;
62102;SDS011;48077;48.104;11.702;2023-02-28T14:45:20;63.38;;;57.83;;
62102;SDS011;48077;48.104;11.702;2023-02-28T14:47:44;62.10;;;56.45;;
62102;SDS011;48077;48.104;11.702;2023-02-28T14:50:17;60.33;;;54.90;;
62102;SDS011;48077;48.104;11.702;2023-02-28T14:52:42;60.90;;;55.70;;
62102;SDS011;48077;48.104;11.702;2023-02-28T14:55:09;59.22;;;53.80;;
62102;SDS011;48077;48.104;11.702;2023-02-28T14:57:42;62.67;;;56.53;;
62102;SDS011;48077;48.104;11.702;2023-02-28T15:00:15;64.65;;;58.50;;
62102;SDS011;48077;48.104;11.702;2023-02-28T15:02:48;59.90;;;54.53;;
62102;SDS011;48077;48.104;11.702;2023-02-28T15:07:35;61.03;;;55.78;;
62102;SDS011;48077;48.104;11.702;2023-02-28T15:13:07;63.17;;;57.92;;
62102;SDS011;48077;48.104;11.702;2023-02-28T15:18:38;70.40;;;63.45;;
62102;SDS011;48077;48.104;11.702;2023-02-28T15:21:05;66.53;;;60.67;;
62102;SDS011;48077;48.104;11.702;2023-02-28T15:23:31;66.47;;;60.50;;
62102;SDS011;48077;48.104;11.702;2023-02-28T15:25:55;64.53;;;59.13;;
62102;SDS011;48077;48.104;11.702;2023-02-28T15:28:20;65.07;;;59.17;;
62102;SDS011;48077;48.104;11.702;2023-02-28T15:30:56;64.40;;;58.80;;
62102;SDS011;48077;48.104;11.702;2023-02-28T15:33:33;65.22;;;59.58;;
62102;SDS011;48077;48.104;11.702;2023-02-28T15:38:50;67.25;;;61.35;;
62102;SDS011;48077;48.104;11.702;2023-02-28T15:41:22;66.75;;;60.72;;
62102;SDS011;48077;48.104;11.702;2023-02-28T15:43:48;65.60;;;59.83;;
62102;SDS011;48077;48.104;11.702;2023-02-28T15:46:12;65.75;;;59.85;;
62102;SDS011;48077;48.104;11.702;2023-02-28T15:51:23;65.10;;;59.63;;
62102;SDS011;48077;48.104;11.702;2023-02-28T15:53:54;67.82;;;61.33;;
62102;SDS011;48077;48.104;11.702;2023-02-28T15:58:50;63.50;;;58.22;;
62102;SDS011;48077;48.104;11.702;2023-02-28T16:01:30;68.20;;;62.33;;
62102;SDS011;48077;48.104;11.702;2023-02-28T16:03:57;69.85;;;62.90;;
62102;SDS011;48077;48.104;11.702;2023-02-28T16:06:38;67.80;;;62.08;;
62102;SDS011;48077;48.104;11.702;2023-02-28T16:09:32;72.65;;;66.47;;
62102;SDS011;48077;48.104;11.702;2023-02-28T16:11:56;67.95;;;62.33;;
62102;SDS011;48077;48.104;11.702;2023-02-28T16:14:27;67.03;;;61.25;;
62102;SDS011;48077;48.104;11.702;2023-02-28T16:16:54;67.68;;;61.85;;
62102;SDS011;48077;48.104;11.702;2023-02-28T16:19:19;66.90;;;61.13;;
62102;SDS011;48077;48.104;11.702;2023-02-28T16:21:42;66.00;;;60.42;;
62102;SDS011;48077;48.104;11.702;2023-02-28T16:24:06;72.32;;;65.95;;
62102;SDS011;48077;48.104;11.702;2023-02-28T16:26:30;68.40;;;62.55;;
62102;SDS011;48077;48.104;11.702;2023-02-28T16:28:56;69.03;;;63.05;;
62102;SDS011;48077;48.104;11.702;2023-02-28T16:31:20;68.63;;;62.75;;
62102;SDS011;48077;48.104;11.702;2023-02-28T16:33:46;72.55;;;65.85;;
62102;SDS011;48077;48.104;11.702;2023-02-28T16:36:14;68.80;;;63.00;;
62102;SDS011;48077;48.104;11.702;2023-02-28T16:38:41;69.30;;;63.45;;
62102;SDS011;48077;48.104;11.702;2023-02-28T16:41:05;70.05;;;63.65;;
62102;SDS011;48077;48.104;11.702;2023-02-28T16:43:28;72.20;;;65.88;;